Time;durP1;ratioP1;P1;durP2;ratioP2;P2;SDS_P1;SDS_P2;PMS_P1;PMS_P2;Temp;Humidity;BMP_temperature;BMP_pressure;BME280_temperature;BME280_humidity;BME280_pressure;Samples;Min_cycle;Max_cycle;Signal;HPM_P1;HPM_P2
2022/10/17 00:02:06;;;;;;;;;14.00;13.75;;;;;17.81;57.96;99450.84;4999766;27;102396;-42
2022/10/17 00:04:33;;;;;;;;;19.50;17.50;;;;;17.81;57.16;99458.22;4985639;27;102241;-42
2022/10/17 00:07:00;;;;;;;;;18.50;15.00;;;;;17.80;57.85;99453.78;4989131;27;103881;-42
2022/10/17 00:09:27;;;;;;;;;13.75;13.25;;;;;17.78;57.76;99450.47;4993582;27;102608;-42
2022/10/17 00:11:54;;;;;;;;;19.25;16.00;;;;;17.75;57.22;99456.38;4999388;27;103455;-42
2022/10/17 00:14:21;;;;;;;;;16.00;15.00;;;;;17.75;57.24;99448.16;5006489;27;103146;-42
2022/10/17 00:16:48;;;;;;;;;18.50;18.00;;;;;17.73;57.44;99442.09;4998925;27;104314;-42
2022/10/17 00:19:15;;;;;;;;;18.75;17.25;;;;;17.73;57.59;99459.34;5000579;27;102501;-42
2022/10/17 00:21:42;;;;;;;;;16.50;14.50;;;;;17.73;57.80;99453.88;5013175;27;102548;-42
2022/10/17 00:24:09;;;;;;;;;20.25;16.00;;;;;17.72;57.76;99456.84;5003186;27;102538;-42
2022/10/17 00:26:36;;;;;;;;;16.00;15.25;;;;;17.73;57.64;99459.34;4993041;27;104063;-42
2022/10/17 00:29:03;;;;;;;;;15.75;15.75;;;;;17.73;57.71;99458.50;4995632;27;102073;-42
2022/10/17 00:31:30;;;;;;;;;14.75;14.25;;;;;17.73;57.16;99459.34;4992255;27;102546;-42
2022/10/17 00:33:58;;;;;;;;;17.00;16.00;;;;;17.72;57.34;99457.66;4997044;27;102616;-42
2022/10/17 00:36:25;;;;;;;;;14.25;13.00;;;;;17.73;57.63;99458.50;4997816;27;104241;-42
2022/10/17 00:38:57;;;;;;;;;18.25;17.75;;;;;17.74;57.15;99471.13;5010376;27;102369;-42
2022/10/17 00:41:27;;;;;;;;;18.25;16.25;;;;;17.73;57.90;99467.56;4987088;27;102373;-42
2022/10/17 00:44:00;;;;;;;;;15.00;14.25;;;;;17.72;57.23;99479.56;4987026;28;102605;-42
2022/10/17 00:46:34;;;;;;;;;16.25;14.25;;;;;17.71;57.77;99468.81;4986083;27;104013;-42
2022/10/17 00:49:11;;;;;;;;;17.00;14.50;;;;;17.70;57.88;99473.47;4993535;27;102529;-42
2022/10/17 00:51:48;;;;;;;;;13.00;13.00;;;;;17.70;57.46;99469.88;5002334;27;102646;-42
2022/10/17 00:54:16;;;;;;;;;18.50;14.75;;;;;17.69;57.20;99469.06;4980796;28;102590;-42
2022/10/17 00:56:43;;;;;;;;;16.00;15.00;;;;;17.69;57.66;99462.75;4978721;28;104061;-42
2022/10/17 00:59:10;;;;;;;;;19.25;16.25;;;;;17.67;57.69;99471.19;4980613;27;102404;-42
2022/10/17 01:01:40;;;;;;;;;19.00;16.75;;;;;17.65;57.13;99462.34;4990335;27;103061;-42
2022/10/17 01:04:08;;;;;;;;;9.00;4.00;;;;;17.65;57.67;99467.81;4996696;28;102538;-42
2022/10/17 01:06:35;;;;;;;;;20.25;16.50;;;;;17.66;57.70;99466.78;4989944;27;104091;-42
2022/10/17 01:09:10;;;;;;;;;17.75;14.25;;;;;17.66;57.74;99463.19;5002154;27;102383;-42
2022/10/17 01:12:21;;;;;;;;;18.00;17.00;;;;;17.66;57.08;99464.03;4990500;27;102547;-42
2022/10/17 01:15:41;;;;;;;;;16.00;15.00;;;;;17.66;57.82;99464.03;4993893;27;102436;-42
2022/10/17 01:18:26;;;;;;;;;19.00;17.75;;;;;17.68;57.29;99466.56;5012700;27;108253;-42
2022/10/17 01:21:22;;;;;;;;;20.00;18.00;;;;;17.65;57.70;99462.34;4990578;27;103625;-42
2022/10/17 01:24:32;;;;;;;;;17.00;16.25;;;;;17.67;58.09;99467.63;4994862;27;102096;-42
2022/10/17 01:27:30;;;;;;;;;17.00;16.00;;;;;17.66;57.95;99464.03;4998653;27;102207;-42
2022/10/17 01:30:22;;;;;;;;;14.50;14.00;;;;;17.66;57.57;99464.03;4991352;27;107590;-41
2022/10/17 01:33:07;;;;;;;;;16.00;15.00;;;;;17.65;57.13;99472.50;5000521;27;102227;-42
2022/10/17 01:35:53;;;;;;;;;16.00;15.50;;;;;17.63;57.43;99464.50;5001111;27;102451;-42
2022/10/17 01:38:26;;;;;;;;;18.50;15.25;;;;;17.62;57.47;99468.28;4975047;27;103871;-42
2022/10/17 01:40:58;;;;;;;;;18.50;17.25;;;;;17.61;57.27;99469.34;5002948;27;104151;-42
2022/10/17 01:43:30;;;;;;;;;17.25;13.00;;;;;17.61;57.26;99465.75;4982935;27;103688;-42
2022/10/17 01:46:11;;;;;;;;;18.25;16.50;;;;;17.59;57.10;99466.00;5009113;27;102375;-42
2022/10/17 01:48:38;;;;;;;;;17.00;14.50;;;;;17.58;57.10;99467.06;5009434;27;103094;-42
2022/10/17 01:51:17;;;;;;;;;18.00;16.75;;;;;17.59;57.72;99462.44;4990564;27;104022;-42
2022/10/17 01:53:51;;;;;;;;;18.25;15.50;;;;;17.59;57.52;99463.28;4996430;27;108716;-41
2022/10/17 01:56:18;;;;;;;;;14.25;14.25;;;;;17.58;57.82;99467.06;4994159;27;102469;-42
2022/10/17 01:59:15;;;;;;;;;19.50;15.75;;;;;17.60;57.76;99462.22;4999790;27;105077;-42
2022/10/17 02:01:43;;;;;;;;;18.00;16.75;;;;;17.59;57.53;99474.22;4996517;27;104068;-42
2022/10/17 02:04:10;;;;;;;;;18.50;16.50;;;;;17.59;57.03;99467.91;4985027;28;102398;-42
2022/10/17 02:06:37;;;;;;;;;17.50;16.00;;;;;17.59;57.62;99476.94;4997831;27;102644;-42
2022/10/17 02:09:20;;;;;;;;;15.50;15.25;;;;;17.59;57.07;99479.69;5002731;27;103685;-42
2022/10/17 02:11:53;;;;;;;;;17.00;16.25;;;;;17.59;57.38;99484.31;4997919;27;108861;-42
2022/10/17 02:14:37;;;;;;;;;15.00;14.25;;;;;17.58;57.22;99483.47;4995557;27;102272;-42
2022/10/17 02:17:13;;;;;;;;;16.25;15.25;;;;;17.57;57.45;99487.22;4975967;27;102153;-42
2022/10/17 02:19:54;;;;;;;;;16.75;16.00;;;;;17.57;57.71;99489.13;4990402;27;102391;-42
2022/10/17 02:22:26;;;;;;;;;18.50;16.75;;;;;17.56;57.72;99484.75;4991871;27;108854;-42
2022/10/17 02:25:08;;;;;;;;;14.00;14.00;;;;;17.54;57.71;99481.38;5008396;27;102493;-42
2022/10/17 02:27:59;;;;;;;;;15.75;15.25;;;;;17.52;57.81;99476.13;5010154;27;103457;-42
2022/10/17 02:30:32;;;;;;;;;19.00;17.00;;;;;17.52;57.69;99478.84;4994340;27;102520;-42
2022/10/17 02:33:14;;;;;;;;;18.00;16.00;;;;;17.50;57.32;99472.78;5000537;27;104069;-42
2022/10/17 02:35:45;;;;;;;;;16.75;14.75;;;;;17.51;57.10;99479.09;4965789;28;102381;-42
2022/10/17 02:38:12;;;;;;;;;17.00;16.50;;;;;17.51;57.08;99481.84;4979781;28;102840;-42
2022/10/17 02:40:39;;;;;;;;;18.25;16.75;;;;;17.50;57.35;99485.63;4978843;28;102986;-43
2022/10/17 02:43:06;;;;;;;;;18.50;17.00;;;;;17.50;57.74;99481.00;4994298;28;104058;-42
2022/10/17 02:45:34;;;;;;;;;19.00;17.00;;;;;17.51;57.53;99481.84;4985548;28;102447;-42
2022/10/17 02:48:08;;;;;;;;;13.75;12.75;;;;;17.51;57.87;99474.47;4963932;28;102829;-42
2022/10/17 02:50:45;;;;;;;;;15.50;15.00;;;;;17.51;57.32;99477.22;4993892;28;102624;-42
2022/10/17 02:53:23;;;;;;;;;16.75;16.25;;;;;17.51;57.54;99471.75;4978624;28;110531;-42
2022/10/17 02:55:55;;;;;;;;;17.25;16.25;;;;;17.50;57.66;99475.53;4962358;28;102408;-42
2022/10/17 02:58:30;;;;;;;;;16.50;15.50;;;;;17.51;57.63;99476.38;4973681;28;103546;-42
2022/10/17 03:00:57;;;;;;;;;17.00;16.50;;;;;17.49;57.61;99481.22;4975728;28;102302;-42
2022/10/17 03:03:26;;;;;;;;;19.00;16.75;;;;;17.48;58.34;99485.00;4960972;28;104098;-42
2022/10/17 03:05:53;;;;;;;;;16.25;16.00;;;;;17.48;57.03;99494.03;4989300;28;102139;-42
2022/10/17 03:08:20;;;;;;;;;12.50;11.75;;;;;17.46;57.81;99487.97;4958289;28;102206;-42
2022/10/17 03:10:47;;;;;;;;;18.75;16.75;;;;;17.47;57.32;99494.28;4967072;28;102510;-43
2022/10/17 03:13:16;;;;;;;;;18.75;17.00;;;;;17.44;57.42;99492.81;4990194;27;104175;-42
2022/10/17 03:15:42;;;;;;;;;20.00;17.25;;;;;17.43;57.65;99496.59;4977018;27;102478;-42
2022/10/17 03:18:09;;;;;;;;;16.50;15.00;;;;;17.44;57.27;99492.81;4964899;28;102311;-42
2022/10/17 03:20:36;;;;;;;;;14.50;14.25;;;;;17.43;57.70;99502.06;4971990;28;103660;-42
2022/10/17 03:23:03;;;;;;;;;19.50;17.00;;;;;17.44;57.57;99503.75;4978992;28;104049;-42
2022/10/17 03:25:30;;;;;;;;;15.25;14.50;;;;;17.42;57.88;99505.91;4971499;27;102552;-42
2022/10/17 03:28:00;;;;;;;;;16.25;15.50;;;;;17.44;57.31;99511.13;4970475;28;102083;-42
2022/10/17 03:30:28;;;;;;;;;20.00;18.00;;;;;17.43;57.31;99510.28;4976966;28;102715;-42
2022/10/17 03:32:56;;;;;;;;;16.25;16.25;;;;;17.43;56.90;99513.00;4983541;27;104074;-42
2022/10/17 03:35:24;;;;;;;;;16.75;16.75;;;;;17.42;57.50;99511.38;4968432;28;102288;-42
2022/10/17 03:37:51;;;;;;;;;15.50;14.50;;;;;17.42;57.15;99525.03;4966404;28;102379;-41
2022/10/17 03:40:18;;;;;;;;;16.75;16.75;;;;;17.42;57.88;99522.31;4971159;28;102543;-42
2022/10/17 03:42:45;;;;;;;;;19.00;16.75;;;;;17.44;57.60;99524.78;4983306;28;104246;-42
2022/10/17 03:45:12;;;;;;;;;17.50;17.25;;;;;17.42;57.30;99527.78;4975580;28;102358;-42
2022/10/17 03:47:39;;;;;;;;;19.50;15.50;;;;;17.40;57.16;99522.50;4980533;28;102385;-42
2022/10/17 03:50:06;;;;;;;;;16.00;15.25;;;;;17.41;57.09;99520.63;4989774;27;102583;-42
2022/10/17 03:52:33;;;;;;;;;17.50;16.25;;;;;17.40;56.92;99518.94;4990570;27;104065;-42
2022/10/17 03:55:00;;;;;;;;;18.75;17.75;;;;;17.39;57.26;99522.72;4988849;27;102735;-42
2022/10/17 03:57:27;;;;;;;;;21.00;18.00;;;;;17.38;57.83;99518.34;4988118;28;102541;-42
2022/10/17 03:59:54;;;;;;;;;18.75;18.25;;;;;17.38;57.29;99526.53;4972545;27;102590;-42
2022/10/17 04:02:22;;;;;;;;;19.25;17.00;;;;;17.37;57.13;99531.16;4984159;28;104046;-41
2022/10/17 04:04:49;;;;;;;;;17.75;17.25;;;;;17.36;57.63;99534.13;4985221;27;102395;-42
2022/10/17 04:07:16;;;;;;;;;19.25;15.75;;;;;17.36;57.38;99545.06;4980205;28;102406;-43
2022/10/17 04:09:43;;;;;;;;;22.00;18.75;;;;;17.35;57.19;99537.91;4985546;28;102709;-42
2022/10/17 04:12:10;;;;;;;;;21.00;19.75;;;;;17.36;57.28;99534.13;4973048;27;104335;-42
2022/10/17 04:14:38;;;;;;;;;21.25;19.25;;;;;17.35;57.36;99530.53;4984670;28;102543;-42
2022/10/17 04:17:05;;;;;;;;;22.50;17.00;;;;;17.36;57.30;99539.59;4981235;28;102271;-42
2022/10/17 04:19:32;;;;;;;;;15.75;15.00;;;;;17.36;57.00;99539.59;4976825;28;102135;-42
2022/10/17 04:21:59;;;;;;;;;16.50;16.50;;;;;17.36;56.56;99534.13;4973883;28;104060;-42
2022/10/17 04:24:26;;;;;;;;;17.25;17.25;;;;;17.35;56.94;99533.28;4988232;28;102399;-42
2022/10/17 04:26:53;;;;;;;;;18.25;17.50;;;;;17.35;56.39;99532.44;4978038;28;102660;-42
2022/10/17 04:29:20;;;;;;;;;16.75;16.00;;;;;17.34;57.20;99538.94;4995441;27;102444;-42
2022/10/17 04:31:48;;;;;;;;;17.50;16.25;;;;;17.34;57.28;99536.22;4976406;27;104135;-42
2022/10/17 04:34:15;;;;;;;;;20.00;18.00;;;;;17.33;56.95;99540.88;4975701;28;105551;-40
2022/10/17 04:36:42;;;;;;;;;21.75;19.75;;;;;17.32;57.30;99543.81;4982894;28;102642;-42
2022/10/17 04:39:09;;;;;;;;;24.75;19.25;;;;;17.32;57.26;99543.81;4979483;28;102869;-42
2022/10/17 04:41:36;;;;;;;;;23.25;21.50;;;;;17.31;57.54;99539.41;4973805;28;104211;-42
2022/10/17 04:44:04;;;;;;;;;23.75;19.50;;;;;17.30;56.59;99545.94;4972633;27;102160;-42
2022/10/17 04:46:32;;;;;;;;;22.25;20.25;;;;;17.30;57.22;99544.03;4983176;27;102577;-42
2022/10/17 04:48:59;;;;;;;;;21.25;20.75;;;;;17.28;57.56;99539.88;4980865;27;102206;-42
2022/10/17 04:51:26;;;;;;;;;22.00;18.75;;;;;17.28;56.73;99554.38;4990092;28;104235;-42
2022/10/17 04:53:53;;;;;;;;;21.75;18.50;;;;;17.29;56.99;99552.47;4978832;28;102300;-42
2022/10/17 04:56:22;;;;;;;;;22.00;20.50;;;;;17.27;56.93;99536.28;4961172;28;102924;-42
2022/10/17 04:58:49;;;;;;;;;21.00;20.00;;;;;17.27;57.08;99547.22;4970232;28;102472;-42
2022/10/17 05:01:19;;;;;;;;;23.25;20.50;;;;;17.27;56.76;99535.44;4964762;28;104047;-42
2022/10/17 05:03:46;;;;;;;;;21.25;18.50;;;;;17.27;57.88;99539.03;4984848;27;102582;-41
2022/10/17 05:06:15;;;;;;;;;24.75;21.75;;;;;17.28;56.77;99542.59;4971760;28;102389;-42
2022/10/17 05:08:43;;;;;;;;;20.00;18.25;;;;;17.26;57.22;99539.22;4985359;28;102667;-42
2022/10/17 05:11:26;;;;;;;;;23.25;22.00;;;;;17.27;56.98;99536.28;4983136;28;104045;-42
2022/10/17 05:13:57;;;;;;;;;24.00;21.50;;;;;17.26;56.93;99533.75;4988096;28;102511;-42
2022/10/17 05:16:24;;;;;;;;;21.25;19.00;;;;;17.27;56.65;99543.66;4977655;28;102553;-42
2022/10/17 05:18:55;;;;;;;;;27.00;22.00;;;;;17.27;57.30;99543.66;4993704;28;102530;-42
2022/10/17 05:21:23;;;;;;;;;26.75;24.50;;;;;17.26;57.70;99550.16;4983133;28;104100;-42
2022/10/17 05:23:50;;;;;;;;;22.75;21.25;;;;;17.26;57.77;99559.19;4977493;28;102672;-42
2022/10/17 05:26:17;;;;;;;;;29.25;23.50;;;;;17.26;57.10;99566.56;4982548;28;102332;-43
2022/10/17 05:28:44;;;;;;;;;29.25;26.00;;;;;17.25;56.87;99559.41;4983276;28;102365;-42
2022/10/17 05:31:11;;;;;;;;;21.00;20.50;;;;;17.24;57.19;99563.22;4980344;28;112015;-42
2022/10/17 05:33:38;;;;;;;;;24.00;22.50;;;;;17.24;56.82;99563.22;4984218;27;102526;-42
2022/10/17 05:36:06;;;;;;;;;27.50;22.00;;;;;17.23;57.36;99570.59;4995129;28;102299;-42
2022/10/17 05:38:33;;;;;;;;;27.00;23.25;;;;;17.24;57.73;99579.63;4978072;28;102215;-42
2022/10/17 05:41:01;;;;;;;;;21.75;21.75;;;;;17.23;57.73;99578.78;4973901;28;104079;-42
2022/10/17 05:43:28;;;;;;;;;26.50;24.00;;;;;17.23;57.90;99577.94;4989242;28;102372;-42
2022/10/17 05:45:55;;;;;;;;;21.00;20.25;;;;;17.22;57.06;99584.47;4987582;28;102348;-42
2022/10/17 05:48:22;;;;;;;;;27.25;23.00;;;;;17.23;57.16;99588.88;4982817;28;102371;-42
2022/10/17 05:50:56;;;;;;;;;25.75;21.00;;;;;17.23;57.58;99583.41;4976128;27;104322;-42
2022/10/17 05:53:23;;;;;;;;;22.00;20.25;;;;;17.22;56.99;99585.31;4980720;28;102379;-42
2022/10/17 05:55:57;;;;;;;;;27.25;25.25;;;;;17.23;57.86;99580.69;4968246;28;105485;-42
2022/10/17 05:58:25;;;;;;;;;28.50;26.75;;;;;17.24;56.91;99582.38;4971524;28;102211;-42
2022/10/17 06:01:12;;;;;;;;;23.50;22.75;;;;;17.23;57.52;99589.72;4988508;28;107914;-42
2022/10/17 06:03:39;;;;;;;;;25.00;23.75;;;;;17.24;57.88;99596.03;4976535;28;102554;-42
2022/10/17 06:06:10;;;;;;;;;24.25;21.50;;;;;17.23;56.91;99597.09;4981246;28;102370;-42
2022/10/17 06:08:38;;;;;;;;;26.50;24.00;;;;;17.23;57.61;99599.81;4980288;28;102555;-42
2022/10/17 06:11:05;;;;;;;;;27.25;26.50;;;;;17.23;56.96;99602.56;4979962;28;104180;-42
2022/10/17 06:13:36;;;;;;;;;27.75;25.00;;;;;17.23;57.50;99597.94;4985382;28;102559;-42
2022/10/17 06:16:04;;;;;;;;;28.50;21.75;;;;;17.22;57.55;99598.13;4979102;28;102435;-42
2022/10/17 06:18:31;;;;;;;;;32.25;28.00;;;;;17.23;57.68;99606.13;4970359;28;102485;-42
2022/10/17 06:21:06;;;;;;;;;24.50;21.75;;;;;17.21;56.88;99608.22;4978957;28;104269;-42
2022/10/17 06:23:33;;;;;;;;;28.00;27.50;;;;;17.22;57.04;99614.53;4975652;28;102554;-42
2022/10/17 06:26:00;;;;;;;;;26.75;24.00;;;;;17.21;57.16;99621.88;4973258;28;102157;-42
2022/10/17 06:28:27;;;;;;;;;26.75;25.00;;;;;17.21;56.77;99619.16;4983730;28;102473;-42
2022/10/17 06:30:55;;;;;;;;;29.25;28.50;;;;;17.21;57.98;99618.31;4978466;27;104226;-42
2022/10/17 06:33:22;;;;;;;;;29.75;23.75;;;;;17.22;56.99;99630.94;4978341;28;102252;-41
2022/10/17 06:35:55;;;;;;;;;30.00;25.25;;;;;17.21;57.14;99637.44;4992516;28;103009;-42
2022/10/17 06:38:22;;;;;;;;;23.50;21.75;;;;;17.21;57.53;99623.78;4981153;28;102320;-42
2022/10/17 06:40:49;;;;;;;;;25.50;24.25;;;;;17.21;57.40;99641.03;4974679;28;103940;-42
2022/10/17 06:43:16;;;;;;;;;26.25;22.00;;;;;17.23;57.96;99640.81;4983473;28;102573;-42
2022/10/17 06:45:45;;;;;;;;;29.00;27.00;;;;;17.24;57.56;99626.09;4981781;27;102230;-42
2022/10/17 06:48:14;;;;;;;;;26.50;25.25;;;;;17.23;57.49;99633.47;4981088;28;102443;-42
2022/10/17 06:50:41;;;;;;;;;30.75;27.25;;;;;17.23;57.54;99627.16;4978637;28;110879;-42
2022/10/17 06:53:08;;;;;;;;;20.25;19.50;;;;;17.24;56.67;99639.78;4971165;28;102609;-42
2022/10/17 06:55:35;;;;;;;;;24.50;22.00;;;;;17.24;57.50;99639.78;4986963;28;102510;-42
2022/10/17 06:58:02;;;;;;;;;22.50;21.75;;;;;17.24;57.02;99642.50;4986706;27;102493;-42
2022/10/17 07:00:29;;;;;;;;;27.00;26.00;;;;;17.24;57.22;99645.22;4981233;28;104052;-42
2022/10/17 07:02:56;;;;;;;;;29.50;23.75;;;;;17.23;57.12;99643.56;4977350;28;102729;-42
2022/10/17 07:05:23;;;;;;;;;24.50;22.00;;;;;17.24;57.03;99651.53;4976801;28;102573;-42
2022/10/17 07:07:50;;;;;;;;;24.50;23.75;;;;;17.24;57.42;99646.06;4984862;28;102586;-42
2022/10/17 07:10:18;;;;;;;;;32.75;26.25;;;;;17.25;57.22;99649.63;4978725;28;104222;-42
2022/10/17 07:12:45;;;;;;;;;25.50;23.50;;;;;17.26;57.63;99654.03;4984005;28;102200;-42
2022/10/17 07:15:12;;;;;;;;;25.75;21.75;;;;;17.26;56.62;99659.50;4984340;28;102569;-42
2022/10/17 07:17:39;;;;;;;;;31.75;26.75;;;;;17.27;57.77;99661.19;4978571;27;102564;-42
2022/10/17 07:20:06;;;;;;;;;27.00;24.75;;;;;17.27;57.25;99666.66;4991409;28;103591;-42
2022/10/17 07:22:33;;;;;;;;;25.00;21.25;;;;;17.28;57.29;99654.66;4995795;28;102477;-42
2022/10/17 07:25:00;;;;;;;;;31.00;26.75;;;;;17.30;57.71;99677.16;4980946;28;102126;-42
2022/10/17 07:27:27;;;;;;;;;26.50;23.25;;;;;17.32;56.99;99675.03;4975692;28;102603;-42
2022/10/17 07:29:55;;;;;;;;;27.25;24.25;;;;;17.33;57.59;99671.25;4967226;28;104316;-42
2022/10/17 07:32:22;;;;;;;;;28.50;24.75;;;;;17.34;57.23;99667.44;4981830;27;102437;-42
2022/10/17 07:34:49;;;;;;;;;28.25;25.75;;;;;17.35;56.50;99674.59;4987481;27;102311;-42
2022/10/17 07:37:16;;;;;;;;;24.50;20.50;;;;;17.35;57.03;99677.34;4985140;28;102169;-42
2022/10/17 07:39:43;;;;;;;;;24.75;24.25;;;;;17.37;56.99;99683.44;4985288;28;108688;-42
2022/10/17 07:42:10;;;;;;;;;26.25;26.00;;;;;17.38;56.57;99668.72;4986399;28;102187;-42
2022/10/17 07:44:37;;;;;;;;;28.25;25.25;;;;;17.38;56.71;99679.66;4978908;28;103577;-42
2022/10/17 07:47:04;;;;;;;;;25.00;23.25;;;;;17.39;57.27;99673.94;4983266;28;102224;-42
2022/10/17 07:49:31;;;;;;;;;24.50;22.75;;;;;17.41;56.78;99679.19;4978125;28;104038;-42
2022/10/17 07:51:58;;;;;;;;;28.25;25.50;;;;;17.41;56.06;99684.66;4981016;28;102509;-42
2022/10/17 07:54:25;;;;;;;;;27.75;23.50;;;;;17.42;56.44;99680.88;4979568;27;102712;-42
2022/10/17 07:56:51;;;;;;;;;27.50;25.00;;;;;17.43;56.80;99671.59;4982557;28;102404;-42
2022/10/17 07:59:19;;;;;;;;;25.50;23.25;;;;;17.42;56.45;99676.22;4978746;28;104130;-42
2022/10/17 08:01:46;;;;;;;;;23.25;22.00;;;;;17.44;56.25;99677.91;4982840;28;102346;-42
2022/10/17 08:04:13;;;;;;;;;23.75;22.00;;;;;17.44;56.78;99676.03;4984940;28;102200;-42
2022/10/17 08:06:40;;;;;;;;;24.50;21.00;;;;;17.44;56.80;99684.22;4985697;28;102316;-42
2022/10/17 08:09:07;;;;;;;;;24.25;23.75;;;;;17.44;56.92;99688.84;4986240;28;104352;-42
2022/10/17 08:11:35;;;;;;;;;27.25;22.50;;;;;17.44;56.49;99677.91;4987768;28;102429;-42
2022/10/17 08:14:02;;;;;;;;;25.50;23.25;;;;;17.44;56.41;99680.66;4970017;28;102186;-42
2022/10/17 08:16:29;;;;;;;;;27.75;25.25;;;;;17.45;56.45;99674.97;4970403;28;102394;-42
2022/10/17 08:18:56;;;;;;;;;23.00;21.25;;;;;17.46;57.04;99673.06;4970953;28;104100;-42
2022/10/17 08:21:23;;;;;;;;;25.25;23.00;;;;;17.46;56.36;99676.66;4976715;28;102182;-42
2022/10/17 08:23:50;;;;;;;;;23.75;22.25;;;;;17.46;56.46;99687.59;4952777;28;102821;-42
2022/10/17 08:26:18;;;;;;;;;25.75;23.00;;;;;17.48;56.61;99690.09;4978179;27;102413;-42
2022/10/17 08:28:45;;;;;;;;;25.00;21.50;;;;;17.47;56.79;99693.91;4981713;28;104766;-42
2022/10/17 08:31:19;;;;;;;;;23.25;22.25;;;;;17.48;57.02;99684.63;4992379;28;102761;-42
2022/10/17 08:33:47;;;;;;;;;27.75;24.25;;;;;17.47;57.16;99689.25;4983101;28;102430;-42
2022/10/17 08:36:17;;;;;;;;;26.25;25.25;;;;;17.48;56.79;99687.34;4994376;28;102407;-42
2022/10/17 08:38:45;;;;;;;;;22.50;22.25;;;;;17.48;56.32;99690.94;4993703;27;108940;-42
2022/10/17 08:41:48;;;;;;;;;28.75;25.50;;;;;17.48;56.77;99696.41;4974654;28;102497;-43
2022/10/17 08:44:28;;;;;;;;;25.25;22.00;;;;;17.49;56.47;99686.31;4985291;28;102162;-42
2022/10/17 08:46:57;;;;;;;;;28.50;24.00;;;;;17.50;57.20;99704.41;4986569;28;102668;-42
2022/10/17 08:49:32;;;;;;;;;29.50;25.75;;;;;17.50;56.46;99704.41;4985957;28;104276;-42
2022/10/17 08:52:06;;;;;;;;;27.25;23.00;;;;;17.50;56.98;99693.47;4975520;28;102549;-42
2022/10/17 08:54:44;;;;;;;;;27.50;23.50;;;;;17.50;56.64;99698.94;4976582;28;102563;-42
2022/10/17 08:57:14;;;;;;;;;23.25;21.25;;;;;17.51;56.71;99695.97;4993480;28;102589;-42
2022/10/17 08:59:44;;;;;;;;;26.75;23.50;;;;;17.52;57.11;99703.09;4982406;28;104361;-42
2022/10/17 09:02:30;;;;;;;;;23.50;20.50;;;;;17.53;56.69;99691.13;4985677;27;102096;-42
2022/10/17 09:05:12;;;;;;;;;26.50;21.00;;;;;17.53;57.12;99688.38;4984677;28;102184;-42
2022/10/17 09:07:47;;;;;;;;;28.50;22.00;;;;;17.54;56.74;99690.06;4986610;28;102378;-42
2022/10/17 09:10:33;;;;;;;;;27.25;25.50;;;;;17.56;56.51;99692.59;4984434;28;109886;-42
2022/10/17 09:13:18;;;;;;;;;27.00;24.50;;;;;17.57;57.06;99686.03;4967509;28;102420;-42
2022/10/17 09:16:07;;;;;;;;;24.25;21.25;;;;;17.57;56.08;99684.16;4988811;28;102539;-42
2022/10/17 09:18:37;;;;;;;;;26.75;22.50;;;;;17.57;56.21;99684.16;4991483;27;102488;-42
2022/10/17 09:21:26;;;;;;;;;24.50;22.75;;;;;17.58;56.91;99683.13;4982524;28;104035;-42
2022/10/17 09:23:56;;;;;;;;;24.75;20.00;;;;;17.60;56.78;99696.59;4980798;28;102550;-42
2022/10/17 09:26:36;;;;;;;;;19.00;18.25;;;;;17.59;56.29;99687.53;4978094;28;102624;-42
2022/10/17 09:29:09;;;;;;;;;22.50;21.00;;;;;17.58;56.18;99688.59;4991707;28;102154;-42
2022/10/17 09:31:42;;;;;;;;;24.00;22.25;;;;;17.60;56.33;99691.97;4986687;28;104197;-42
2022/10/17 09:34:09;;;;;;;;;23.25;21.50;;;;;17.61;56.84;99692.78;4981507;28;102327;-42
2022/10/17 09:36:38;;;;;;;;;23.75;19.75;;;;;17.62;56.88;99689.00;4989991;27;103697;-42
2022/10/17 09:39:11;;;;;;;;;19.75;18.25;;;;;17.62;56.26;99687.09;4988974;27;102383;-42
2022/10/17 09:41:43;;;;;;;;;23.00;21.25;;;;;17.62;56.24;99684.34;4976432;28;104079;-42
2022/10/17 09:44:18;;;;;;;;;27.50;24.75;;;;;17.63;56.13;99683.31;4978340;28;102011;-42
2022/10/17 09:46:51;;;;;;;;;24.50;22.00;;;;;17.64;56.12;99690.47;4971727;28;103808;-42
2022/10/17 09:49:20;;;;;;;;;21.50;20.50;;;;;17.64;56.43;99673.22;4983528;28;102467;-42
2022/10/17 09:51:47;;;;;;;;;24.50;20.25;;;;;17.64;56.73;99682.25;4942615;28;105351;-43
2022/10/17 09:54:23;;;;;;;;;23.25;17.00;;;;;17.65;56.32;99686.66;4983617;28;102334;-42
2022/10/17 09:57:09;;;;;;;;;21.75;20.75;;;;;17.66;56.42;99687.47;4959133;27;102145;-43
2022/10/17 10:00:02;;;;;;;;;20.50;19.50;;;;;17.67;56.49;99694.63;4967583;28;102141;-42
2022/10/17 10:02:29;;;;;;;;;22.00;20.25;;;;;17.68;56.63;99696.31;4984801;28;108941;-42
2022/10/17 10:05:05;;;;;;;;;21.75;21.25;;;;;17.68;56.57;99683.50;4992761;27;102474;-42
2022/10/17 10:07:37;;;;;;;;;21.25;19.25;;;;;17.69;56.01;99689.81;4982532;28;102531;-42
2022/10/17 10:10:06;;;;;;;;;20.75;19.50;;;;;17.69;56.23;99687.91;4988985;28;102703;-42
2022/10/17 10:12:36;;;;;;;;;21.00;19.00;;;;;17.70;56.43;99688.72;4988436;28;104166;-42
2022/10/17 10:15:36;;;;;;;;;21.00;19.00;;;;;17.70;56.34;99683.25;4985052;27;102131;-42
2022/10/17 10:18:31;;;;;;;;;22.25;19.00;;;;;17.71;56.37;99684.94;4971955;28;104195;-42
2022/10/17 10:21:19;;;;;;;;;22.25;21.00;;;;;17.71;56.80;99685.78;4980288;28;102272;-42
2022/10/17 10:24:12;;;;;;;;;21.50;20.00;;;;;17.71;56.84;99682.19;4983861;28;108873;-42
2022/10/17 10:26:40;;;;;;;;;17.50;17.50;;;;;17.72;56.05;99681.16;4984425;27;102296;-42
2022/10/17 10:29:24;;;;;;;;;19.25;18.25;;;;;17.73;56.63;99683.66;4967553;28;103483;-42
2022/10/17 10:31:51;;;;;;;;;24.00;19.25;;;;;17.74;56.57;99679.03;4975795;28;102938;-43
2022/10/17 10:34:24;;;;;;;;;21.25;18.75;;;;;17.75;56.87;99673.31;4976339;28;104050;-42
2022/10/17 10:37:05;;;;;;;;;24.25;19.25;;;;;17.75;56.46;99681.53;4954929;28;102499;-42
2022/10/17 10:40:01;;;;;;;;;21.00;18.25;;;;;17.78;56.34;99675.66;4966779;28;102306;-42
2022/10/17 10:42:29;;;;;;;;;20.25;19.00;;;;;17.78;56.07;99675.66;4978620;28;102290;-43
2022/10/17 10:45:23;;;;;;;;;15.25;15.00;;;;;17.78;56.90;99670.16;4985545;28;104178;-42
2022/10/17 10:48:19;;;;;;;;;21.00;19.00;;;;;17.81;56.80;99669.72;4970669;28;102366;-42
2022/10/17 10:50:55;;;;;;;;;21.00;19.75;;;;;17.81;56.83;99672.44;4990929;27;102470;-42
2022/10/17 10:53:30;;;;;;;;;19.75;17.50;;;;;17.82;56.29;99670.56;4957747;28;102660;-42
2022/10/17 10:56:12;;;;;;;;;25.00;19.25;;;;;17.83;56.80;99673.06;4975802;27;104244;-42
2022/10/17 10:59:02;;;;;;;;;20.75;17.25;;;;;17.84;56.37;99663.78;4975044;28;102200;-42
2022/10/17 11:01:40;;;;;;;;;19.00;16.50;;;;;17.86;56.75;99657.25;4970688;28;102647;-42
2022/10/17 11:04:29;;;;;;;;;21.00;19.25;;;;;17.86;56.02;99670.94;4982701;27;103316;-42
2022/10/17 11:07:05;;;;;;;;;20.50;19.50;;;;;17.87;56.43;99668.00;4988454;28;109530;-42
2022/10/17 11:10:11;;;;;;;;;19.50;18.50;;;;;17.88;56.63;99660.63;4978538;28;102560;-42
2022/10/17 11:12:56;;;;;;;;;18.75;15.75;;;;;17.88;56.51;99664.19;4896435;28;102263;-42
2022/10/17 11:15:24;;;;;;;;;22.25;20.00;;;;;17.88;56.38;99664.19;4972907;28;102592;-42
2022/10/17 11:18:06;;;;;;;;;17.75;16.75;;;;;17.90;56.67;99662.06;4977047;28;103104;-42
2022/10/17 11:20:59;;;;;;;;;23.25;19.50;;;;;17.92;56.35;99664.59;4970802;28;102665;-42
2022/10/17 11:23:47;;;;;;;;;19.75;18.25;;;;;17.94;56.46;99652.34;4979858;28;102350;-42
2022/10/17 11:26:28;;;;;;;;;19.00;18.00;;;;;17.94;56.31;99660.56;4964390;28;102513;-42
2022/10/17 11:28:55;;;;;;;;;21.25;19.25;;;;;17.95;56.76;99653.19;4987434;28;108926;-42
2022/10/17 11:31:24;;;;;;;;;16.25;15.75;;;;;17.98;56.51;99658.22;4998896;28;102663;-42
2022/10/17 11:34:02;;;;;;;;;18.50;17.00;;;;;17.98;56.11;99648.09;4973939;28;102397;-43